Lens, Belgium
Current Conditions -  °F | °C
As of 3:16 PM on Monday 26 Jan 2015 (Local Time) from EBCV Reporting Station
Broken Clouds Broken Clouds  
Wind Chill: 44°   Ceiling: 700
Heat Index: 48°   Visibility: 1.1mi
Dew Point: 46°   Wind: 9mph
Humidity: 93%   Direction: 300°WNW
Pressure: 30.15"   Gusts: NA
Location:  50.56°N, 3.9°E
Report Text: EBCV 261416Z AUTO 30008KT 1900 FEW003/// SCT005/// BKN007/// 09/08 Q1021 YLO
Loading
Personal Weather Stations






























Interactive Weather Map New forecast layout! Learn more

10-Day Weather Forecast

Advertisements
Track Severe Weather on mobile